Terminal Aerodrome Forecast
Issued by NWS

Home | Current Version | Previous Version | Text Only | Print | Product List | Glossary On
Versions: 1 2 3 4 5 6 7 8 9 10 11 12 13 14 15 16
000
FTUS43 KGRR 301955 AAA
TAFJXN
TAF AMD
KJXN 301955Z 3020/3118 28006KT P6SM SCT025 BKN035
     FM310300 00000KT 5SM BR SCT025
     FM310900 00000KT 1 1/2SM BR BKN005
     FM311500 24006KT 5SM BR SCT025=

USA.gov is the U.S. government's official web portal to all federal, state and local government web resources and services.